Verret, Louisiana
Current Conditions -  °F | °C
As of 12:55 PM on Friday 21 Nov 2014 (Local Time) from KNBG Reporting Station
Scattered Clouds Scattered Clouds  
Wind Chill: 71°   Ceiling: Unl
Heat Index: 71°   Visibility: 10mi
Dew Point: 46°   Wind: 17mph
Humidity: 41%   Direction: 90°E
Pressure: 30.25"   Gusts: 24mph
Location:  29.8369°N, 89.7702°W
Report Text: KNBG 211855Z 09015G21KT 10SM FEW020 SCT050 SCT250 22/08 A3025 RMK AO2 SLP241 T02170078 $
Loading
Personal Weather Stations






























Interactive Weather Map New forecast layout! Learn more

10-Day Weather Forecast

Advertisements
Track Severe Weather on mobile